OTTER BROOK LAKE : From 06/04/2019 02:00 to 06/18/2019 18:00

Date STAGE [FT] FLOW [CFS] LAKE ELEVATION [FT] PRECIPITATION INCREMENT [IN] AIR TEMPERATURE [DEGF]
06/18/2019 08:00 -- -- -- 0.00 --
06/18/2019 07:00 6.53 -- 19.85 0.00 67.5
06/18/2019 06:00 6.53 -- 19.86 0.00 68.3
06/18/2019 05:00 6.54 -- 19.86 0.00 66.3
06/18/2019 04:00 6.55 -- 19.87 0.00 62.7
06/18/2019 03:00 6.56 -- 19.88 0.00 59.9
06/18/2019 02:00 6.56 -- 19.89 0.00 58.0
06/18/2019 01:00 6.57 -- 19.90 0.00 58.5
06/18/2019 00:00 6.58 -- 19.91 0.00 59.3
06/17/2019 23:00 6.59 -- 19.92 0.00 60.3
06/17/2019 22:00 6.60 -- 19.93 0.00 60.6
06/17/2019 21:00 6.61 -- 19.94 0.00 61.0
06/17/2019 20:00 6.62 -- 19.95 0.00 61.8
06/17/2019 19:00 6.63 76.1 19.97 0.00 62.8
06/17/2019 18:00 6.64 77.5 19.98 0.00 64.2
06/17/2019 17:00 6.65 78.9 19.99 0.00 66.5
06/17/2019 16:00 6.66 80.3 20.00 0.00 69.0
06/17/2019 15:00 6.67 81.7 20.01 0.00 74.2
06/17/2019 14:00 6.69 84.6 20.03 0.00 77.2
06/17/2019 13:00 6.70 86.1 20.04 0.00 79.0
06/17/2019 12:00 6.71 87.9 20.06 0.00 79.9
06/17/2019 11:00 6.72 89.7 20.06 0.00 78.7
06/17/2019 10:00 6.72 89.7 20.07 0.00 77.8
06/17/2019 09:00 6.73 91.5 20.08 0.00 75.5
06/17/2019 08:00 6.73 91.5 20.08 0.00 74.7
06/17/2019 07:00 6.73 91.5 20.09 0.00 72.9
06/17/2019 06:00 6.74 93.4 20.09 0.00 68.7
06/17/2019 05:00 6.74 93.4 20.09 0.00 66.0
06/17/2019 04:00 6.74 93.4 20.09 0.00 62.3
06/17/2019 03:00 6.74 93.4 20.09 0.00 57.0
06/17/2019 02:00 6.74 93.4 20.09 0.00 56.1
06/17/2019 01:00 6.73 91.5 20.09 0.00 58.9
06/17/2019 00:00 6.73 91.5 20.08 0.00 60.5
06/16/2019 23:00 6.72 89.7 20.08 0.00 61.5
06/16/2019 22:00 6.72 89.7 20.07 0.00 62.9
06/16/2019 21:00 6.71 87.9 20.06 0.00 63.4
06/16/2019 20:00 6.69 84.6 20.04 0.00 64.0
06/16/2019 19:00 6.68 83.2 20.02 0.01 64.2
06/16/2019 18:00 6.65 78.9 19.99 0.00 64.2
06/16/2019 17:00 6.63 76.1 19.97 0.00 64.7
06/16/2019 16:00 6.60 72.0 19.93 0.01 65.6
06/16/2019 15:00 6.57 68.1 19.90 0.02 66.5
06/16/2019 14:00 6.55 65.5 19.87 0.01 67.1
06/16/2019 13:00 6.52 61.8 19.84 0.07 66.7
06/16/2019 12:00 6.50 59.4 19.81 0.25 65.3
06/16/2019 11:00 6.47 55.9 19.78 0.21 65.9
06/16/2019 10:00 6.45 53.7 19.76 0.14 65.9
06/16/2019 09:00 6.44 52.6 19.75 0.11 66.2
06/16/2019 08:00 6.43 51.5 19.74 0.06 66.3
06/16/2019 07:00 6.42 50.4 19.73 0.01 66.9
06/16/2019 06:00 6.43 51.5 19.73 0.00 66.1
06/16/2019 05:00 6.43 51.5 19.74 0.00 64.8
06/16/2019 04:00 6.43 51.5 19.74 0.00 64.0
06/16/2019 03:00 6.43 51.5 19.75 0.00 62.5
06/16/2019 02:00 6.43 51.5 19.75 0.00 61.9
06/16/2019 01:00 6.44 52.6 19.75 0.01 61.8
06/16/2019 00:00 6.44 52.6 19.75 0.02 61.8
06/15/2019 23:00 6.44 52.6 19.75 0.03 62.2
06/15/2019 22:00 6.44 52.6 19.75 0.00 65.7
06/15/2019 21:00 6.45 53.7 19.75 0.00 69.4
06/15/2019 20:00 6.45 53.7 19.75 0.00 70.1
06/15/2019 19:00 6.45 53.7 19.76 0.00 71.0
06/15/2019 18:00 6.46 54.8 19.76 0.00 71.2
06/15/2019 17:00 6.46 54.8 19.77 0.00 67.2
06/15/2019 16:00 6.46 54.8 19.77 0.00 70.4
06/15/2019 15:00 6.47 55.9 19.78 0.00 73.0
06/15/2019 14:00 6.47 55.9 19.78 0.00 76.6
06/15/2019 13:00 6.46 54.8 19.78 0.00 79.1
06/15/2019 12:00 6.47 55.9 19.77 0.00 78.6
06/15/2019 11:00 6.46 54.8 19.78 0.00 79.9
06/15/2019 10:00 6.47 55.9 19.77 0.00 79.5
06/15/2019 09:00 6.49 58.3 19.81 0.00 76.7
06/15/2019 08:00 6.48 57.1 19.80 0.00 75.3
06/15/2019 07:00 6.49 58.3 19.81 0.00 73.5
06/15/2019 06:00 6.49 58.3 19.82 0.00 66.8
06/15/2019 05:00 6.50 59.4 19.82 0.00 65.9
06/15/2019 04:00 6.50 59.4 19.83 0.00 56.2
06/15/2019 03:00 6.50 59.4 19.83 0.00 48.9
06/15/2019 02:00 6.51 60.6 19.84 0.00 47.1
06/15/2019 01:00 6.51 60.6 19.84 0.00 47.1
06/15/2019 00:00 6.51 60.6 19.84 0.00 47.1
06/14/2019 23:00 6.51 60.6 19.84 0.00 47.7
06/14/2019 22:00 6.52 61.8 19.85 0.00 48.5
06/14/2019 21:00 6.52 61.8 19.85 0.00 49.0
06/14/2019 20:00 6.52 61.8 19.85 0.00 49.3
06/14/2019 19:00 6.52 61.8 19.85 0.00 51.1
06/14/2019 18:00 6.53 63.0 19.85 0.00 53.9
06/14/2019 17:00 6.53 63.0 19.86 0.00 58.6
06/14/2019 16:00 6.54 64.3 19.86 0.00 59.9
06/14/2019 15:00 6.54 64.3 19.87 0.00 59.8
06/14/2019 14:00 6.54 64.3 19.88 0.00 60.5
06/14/2019 13:00 6.55 65.5 19.87 0.00 62.3
06/14/2019 12:00 6.55 65.5 19.89 0.00 63.3
06/14/2019 11:00 6.55 65.5 19.87 0.00 64.2
06/14/2019 10:00 6.54 64.3 19.87 0.00 63.7
06/14/2019 09:00 6.55 65.5 19.88 0.00 65.8
06/14/2019 08:00 6.56 66.8 19.88 0.00 63.8
06/14/2019 07:00 6.56 66.8 19.89 0.00 66.3
06/14/2019 06:00 6.55 65.5 19.88 0.00 66.4
06/14/2019 05:00 6.56 66.8 19.89 0.00 60.1
06/14/2019 04:00 6.55 65.5 19.89 0.00 56.5
06/14/2019 03:00 6.55 65.5 19.89 0.00 54.4
06/14/2019 02:00 6.56 66.8 19.90 0.00 53.0
06/14/2019 01:00 6.56 66.8 19.90 0.00 52.7
06/14/2019 00:00 6.56 66.8 19.90 0.00 51.6
06/13/2019 23:00 6.56 66.8 19.91 0.00 51.3
06/13/2019 22:00 6.57 68.1 19.91 0.00 50.9
06/13/2019 21:00 6.57 68.1 19.91 0.00 51.1
06/13/2019 20:00 6.57 68.1 19.91 0.00 50.4
06/13/2019 19:00 6.57 68.1 19.91 0.00 50.3
06/13/2019 18:00 6.57 68.1 19.91 0.00 52.0
06/13/2019 17:00 6.57 68.1 19.91 0.00 52.7
06/13/2019 16:00 6.57 68.1 19.91 0.00 52.8
06/13/2019 15:00 6.57 68.1 19.91 0.00 53.0
06/13/2019 14:00 6.58 69.4 19.92 0.00 54.1
06/13/2019 13:00 6.58 69.4 19.92 0.01 54.5
06/13/2019 12:00 6.59 70.7 19.92 0.01 53.6
06/13/2019 11:00 6.59 70.7 19.94 0.00 53.7
06/13/2019 10:00 6.59 70.7 19.94 0.02 55.4
06/13/2019 09:00 6.59 70.7 19.93 0.06 56.4
06/13/2019 08:00 6.59 70.7 19.93 0.01 56.6
06/13/2019 07:00 6.59 70.7 19.93 0.00 56.8
06/13/2019 06:00 6.59 70.7 19.93 0.00 58.5
06/13/2019 05:00 6.60 72.0 19.93 0.00 59.7
06/13/2019 04:00 6.60 72.0 19.94 0.00 57.1
06/13/2019 03:00 6.60 72.0 19.95 0.00 55.7
06/13/2019 02:00 6.61 73.3 19.95 0.00 53.3
06/13/2019 01:00 6.61 73.3 19.96 0.00 53.0
06/13/2019 00:00 6.62 74.7 19.97 0.00 53.1
06/12/2019 23:00 6.62 74.7 19.97 0.00 52.9
06/12/2019 22:00 6.63 76.1 19.98 0.00 55.4
06/12/2019 21:00 6.63 76.1 19.99 0.00 56.2
06/12/2019 20:00 6.64 77.5 19.99 0.00 58.0
06/12/2019 19:00 6.65 78.9 20.00 0.00 58.0
06/12/2019 18:00 6.66 80.3 20.01 0.00 58.8
06/12/2019 17:00 6.66 80.3 20.01 0.00 61.4
06/12/2019 16:00 6.67 81.7 20.02 0.00 66.7
06/12/2019 15:00 6.68 83.2 20.03 0.00 72.8
06/12/2019 14:00 6.68 83.2 20.03 0.00 74.5
06/12/2019 13:00 6.69 84.6 20.05 0.00 76.0
06/12/2019 12:00 6.69 84.6 20.05 0.00 77.6
06/12/2019 11:00 6.70 86.1 20.06 0.00 76.3
06/12/2019 10:00 6.70 86.1 20.06 0.00 75.3
06/12/2019 09:00 6.71 87.9 20.07 0.00 75.3
06/12/2019 08:00 6.71 87.9 20.08 0.00 74.2
06/12/2019 07:00 6.72 89.7 20.08 0.00 70.4
06/12/2019 06:00 6.72 89.7 20.09 -- 67.9
06/12/2019 05:00 -- -- 20.09 0.00 66.7
06/12/2019 04:00 -- -- 20.10 0.00 54.0
06/12/2019 03:00 6.74 93.4 20.10 0.00 47.6
06/12/2019 02:00 6.74 93.4 20.11 0.00 45.4
06/12/2019 01:00 6.74 93.4 20.11 0.00 46.1
06/12/2019 00:00 6.75 95.2 20.11 0.00 47.1
06/11/2019 23:00 6.74 93.4 20.11 0.00 48.3
06/11/2019 22:00 6.75 95.2 20.12 0.00 48.0
06/11/2019 21:00 6.75 95.2 20.12 0.00 49.6
06/11/2019 20:00 6.76 97.1 20.11 0.00 51.2
06/11/2019 19:00 6.75 95.2 20.11 0.00 53.4
06/11/2019 18:00 6.75 95.2 20.11 0.00 56.4
06/11/2019 17:00 6.74 93.4 20.10 0.00 60.3
06/11/2019 16:00 6.74 93.4 20.09 0.00 66.3
06/11/2019 15:00 6.74 93.4 20.08 0.00 68.3
06/11/2019 14:00 6.73 91.5 20.09 0.00 70.0
06/11/2019 13:00 -- -- 20.05 0.00 74.2
06/11/2019 12:00 6.71 87.9 20.05 0.00 74.7
06/11/2019 11:00 6.68 83.2 20.04 0.00 72.8
06/11/2019 10:00 9.08 725.2 0.00 0.00 0.0
06/11/2019 09:00 9.09 725.2 0.00 0.00 0.0
06/11/2019 08:00 9.07 725.2 0.00 0.00 0.0
06/11/2019 07:00 6.62 74.7 19.96 0.00 63.6
06/11/2019 06:00 6.59 70.7 19.92 0.00 63.4
06/11/2019 05:00 6.57 68.1 19.90 0.01 65.7
06/11/2019 04:00 6.55 65.5 19.88 0.00 68.9
06/11/2019 03:00 6.54 64.3 19.87 0.02 67.4
06/11/2019 02:00 6.53 63.0 19.85 0.23 67.0
06/11/2019 01:00 6.51 60.6 19.83 0.05 66.9
06/11/2019 00:00 6.50 59.4 19.83 0.01 67.5
06/10/2019 23:00 6.50 59.4 19.82 0.04 67.3
06/10/2019 22:00 6.50 59.4 19.82 0.01 67.3
06/10/2019 21:00 6.50 59.4 19.82 0.09 67.3
06/10/2019 20:00 6.50 59.4 19.81 0.02 67.9
06/10/2019 19:00 6.50 59.4 19.82 0.01 68.3
06/10/2019 18:00 6.50 59.4 19.82 0.01 68.8
06/10/2019 17:00 6.51 60.6 19.82 0.00 71.5
06/10/2019 16:00 6.51 60.6 19.83 0.00 72.8
06/10/2019 15:00 6.52 61.8 19.84 0.00 74.3
06/10/2019 14:00 6.52 61.8 19.83 0.00 77.3
06/10/2019 13:00 6.53 63.0 19.85 0.00 79.3
06/10/2019 12:00 6.53 63.0 19.85 0.00 79.7
06/10/2019 11:00 6.53 63.0 19.85 0.00 81.9
06/10/2019 10:00 6.54 64.3 19.87 0.00 83.3
06/10/2019 09:00 6.54 64.3 19.86 0.00 80.1
06/10/2019 08:00 6.55 65.5 19.87 0.00 76.8
06/10/2019 07:00 6.55 65.5 19.88 0.00 72.4
06/10/2019 06:00 6.55 65.5 19.88 0.00 69.3
06/10/2019 05:00 6.56 66.8 19.89 0.00 67.6
06/10/2019 04:00 6.56 66.8 19.90 0.00 61.1
06/10/2019 03:00 6.56 66.8 19.91 0.00 53.9
06/10/2019 02:00 6.57 68.1 19.91 0.00 51.4
06/10/2019 01:00 6.57 68.1 19.92 0.00 51.5
06/10/2019 00:00 6.58 69.4 19.92 0.00 52.7
06/09/2019 23:00 6.59 70.7 19.93 0.00 54.1
06/09/2019 22:00 6.59 70.7 19.93 0.00 54.3
06/09/2019 21:00 6.60 72.0 19.94 0.00 55.5
06/09/2019 20:00 6.61 73.3 19.95 0.00 57.8
06/09/2019 19:00 6.62 74.7 19.96 0.00 59.1
06/09/2019 18:00 6.63 76.1 19.97 0.00 61.1
06/09/2019 17:00 6.64 77.5 19.98 0.00 64.5
06/09/2019 16:00 6.65 78.9 19.99 0.00 70.3
06/09/2019 15:00 6.65 78.9 20.00 0.00 76.2
06/09/2019 14:00 6.66 80.3 20.01 0.00 79.4
06/09/2019 13:00 6.68 83.2 20.03 0.00 81.1
06/09/2019 12:00 6.68 83.2 20.04 0.00 83.1
06/09/2019 11:00 6.69 84.6 20.05 0.00 81.8
06/09/2019 10:00 6.70 86.1 20.07 0.00 82.5
06/09/2019 09:00 6.72 89.7 20.08 0.00 79.9
06/09/2019 08:00 6.73 91.5 20.10 0.00 78.2
06/09/2019 07:00 6.75 95.2 20.12 0.00 75.5
06/09/2019 06:00 6.77 99.1 20.15 0.00 71.8
06/09/2019 05:00 6.79 103.0 20.17 0.00 66.6
06/09/2019 04:00 6.81 106.9 20.20 0.00 60.2
06/09/2019 03:00 6.83 110.8 20.23 0.00 49.1
06/09/2019 02:00 6.86 116.7 20.26 0.00 46.4
06/09/2019 01:00 6.90 125.0 20.31 0.00 46.7
06/09/2019 00:00 6.93 130.8 20.36 0.00 47.7
06/08/2019 23:00 6.98 140.8 20.40 0.00 48.6
06/08/2019 22:00 7.04 153.6 20.47 0.00 50.2
06/08/2019 21:00 7.11 169.3 20.55 0.00 51.4
06/08/2019 20:00 7.14 176.3 20.65 0.00 53.9
06/08/2019 19:00 7.16 181.0 20.74 0.00 55.5
06/08/2019 18:00 7.17 183.4 20.84 0.00 59.5
06/08/2019 17:00 7.17 183.4 20.93 0.00 62.1
06/08/2019 16:00 7.17 183.4 21.02 0.00 68.6
06/08/2019 15:00 7.18 185.8 21.11 0.00 72.7
06/08/2019 14:00 7.18 185.8 21.21 0.00 78.1
06/08/2019 13:00 7.18 185.8 21.31 0.00 79.1
06/08/2019 12:00 7.18 185.8 21.38 0.00 80.3
06/08/2019 11:00 7.19 188.2 21.48 0.00 79.3
06/08/2019 10:00 7.19 188.2 21.56 0.00 78.1
06/08/2019 09:00 7.19 188.2 21.64 0.00 76.8
06/08/2019 08:00 7.19 188.2 21.73 0.00 75.6
06/08/2019 07:00 7.19 188.2 21.82 0.00 73.7
06/08/2019 06:00 7.21 193.1 21.90 0.00 73.1
06/08/2019 05:00 7.20 190.6 21.98 0.00 68.5
06/08/2019 04:00 7.20 190.6 22.06 0.00 62.8
06/08/2019 03:00 7.21 193.1 22.13 0.00 51.1
06/08/2019 02:00 7.20 190.6 22.21 0.00 49.8
06/08/2019 01:00 7.20 190.6 22.28 0.00 50.2
06/08/2019 00:00 7.21 193.1 22.34 0.00 51.7
06/07/2019 23:00 7.21 193.1 22.41 0.00 53.1
06/07/2019 22:00 7.22 195.5 22.47 0.00 54.8
06/07/2019 21:00 7.21 193.1 22.53 0.00 56.3
06/07/2019 20:00 7.20 190.6 22.59 0.00 58.7
06/07/2019 19:00 7.21 193.1 22.65 0.00 59.9
06/07/2019 18:00 7.21 193.1 22.70 0.00 62.2
06/07/2019 17:00 7.21 193.1 22.75 0.00 65.7
06/07/2019 16:00 7.22 195.5 22.79 0.00 68.8
06/07/2019 15:00 7.22 195.5 22.84 0.00 75.0
06/07/2019 14:00 7.21 193.1 22.88 0.00 79.2
06/07/2019 13:00 7.22 195.5 22.92 0.00 80.0
06/07/2019 12:00 7.22 195.5 22.96 0.00 81.5
06/07/2019 11:00 7.22 195.5 22.98 0.00 77.4
06/07/2019 10:00 7.22 195.5 23.01 0.00 80.0
06/07/2019 09:00 7.22 195.5 23.02 0.00 79.3
06/07/2019 08:00 7.22 195.5 23.04 0.00 77.6
06/07/2019 07:00 7.23 198.0 23.05 0.00 76.2
06/07/2019 06:00 7.22 195.5 23.06 0.00 71.1
06/07/2019 05:00 7.22 195.5 23.06 0.00 65.5
06/07/2019 04:00 7.22 195.5 23.06 0.00 59.6
06/07/2019 03:00 7.22 195.5 23.05 0.00 50.7
06/07/2019 02:00 7.22 195.5 23.04 0.00 48.9
06/07/2019 01:00 7.23 198.0 23.02 0.00 49.5
06/07/2019 00:00 7.22 195.5 23.00 0.00 50.4
06/06/2019 23:00 7.23 198.0 22.98 0.00 51.3
06/06/2019 22:00 7.23 198.0 22.94 0.00 52.2
06/06/2019 21:00 7.22 195.5 22.90 0.00 54.8
06/06/2019 20:00 7.23 198.0 22.86 0.00 56.4
06/06/2019 19:00 7.22 195.5 22.80 0.00 58.6
06/06/2019 18:00 7.22 195.5 22.73 0.00 60.4
06/06/2019 17:00 7.22 195.5 22.66 0.00 63.5
06/06/2019 16:00 7.22 195.5 22.58 0.00 67.0
06/06/2019 15:00 7.22 195.5 22.49 0.00 72.6
06/06/2019 14:00 7.21 193.1 22.39 0.00 75.1
06/06/2019 13:00 7.21 193.1 22.28 0.00 76.7
06/06/2019 12:00 7.21 193.1 22.16 0.00 77.7
06/06/2019 11:00 7.20 190.6 22.02 0.00 75.0
06/06/2019 10:00 7.21 193.1 21.85 0.00 73.6
06/06/2019 09:00 7.20 190.6 21.68 0.00 75.3
06/06/2019 08:00 7.20 190.6 21.48 0.00 73.0
06/06/2019 07:00 7.19 188.2 21.28 0.00 68.4
06/06/2019 06:00 7.18 185.8 21.08 0.00 67.1
06/06/2019 05:00 7.17 183.4 20.86 0.00 65.4
06/06/2019 04:00 7.15 178.7 20.64 0.00 64.4
06/06/2019 03:00 7.00 145.0 20.41 0.00 65.2
06/06/2019 02:00 6.81 106.9 20.18 0.01 64.9
06/06/2019 01:00 6.65 78.9 19.99 0.35 65.0
06/06/2019 00:00 6.52 61.8 19.84 0.12 63.8
06/05/2019 23:00 6.45 53.7 19.75 0.18 64.1
06/05/2019 22:00 6.40 48.3 19.69 0.38 64.6
06/05/2019 21:00 6.35 43.3 19.64 0.02 63.9
06/05/2019 20:00 6.34 42.3 19.62 0.41 64.7
06/05/2019 19:00 -- -- 19.62 0.41 64.8
06/05/2019 18:00 -- -- 19.58 0.02 65.2
06/05/2019 17:00 6.30 38.5 19.58 0.02 65.9
06/05/2019 16:00 6.30 38.5 19.58 0.00 70.5
06/05/2019 15:00 6.31 39.5 19.58 0.00 71.7
06/05/2019 14:00 6.31 39.5 19.58 0.00 73.8
06/05/2019 13:00 6.31 39.5 19.58 0.00 79.8
06/05/2019 12:00 6.31 39.5 19.59 0.00 75.3
06/05/2019 11:00 6.32 40.4 19.59 0.00 74.2
06/05/2019 10:00 6.32 40.4 19.60 0.00 76.2
06/05/2019 09:00 6.32 40.4 19.59 0.00 75.1
06/05/2019 08:00 6.32 40.4 19.61 0.00 76.6
06/05/2019 07:00 6.32 40.4 19.59 0.00 75.9
06/05/2019 06:00 6.32 40.4 19.61 0.00 71.0
06/05/2019 05:00 6.32 40.4 19.61 0.00 64.3
06/05/2019 04:00 6.32 40.4 19.62 0.00 59.8
06/05/2019 03:00 6.32 40.4 19.62 0.00 55.1
06/05/2019 02:00 6.33 41.3 19.63 0.00 51.9
06/05/2019 01:00 6.33 41.3 19.63 0.00 50.9
06/05/2019 00:00 6.33 41.3 19.63 0.00 51.0
06/04/2019 23:00 6.34 42.3 19.64 0.00 50.7
06/04/2019 22:00 6.34 42.3 19.64 0.01 50.7
06/04/2019 21:00 6.34 42.3 19.64 0.01 51.1
06/04/2019 20:00 6.35 43.3 19.65 0.00 51.5
06/04/2019 19:00 6.35 43.3 19.65 0.00 53.0
06/04/2019 18:00 6.35 43.3 19.65 0.00 54.0
06/04/2019 17:00 6.36 44.2 19.65 0.00 56.5
06/04/2019 16:00 6.36 44.2 19.66 0.00 58.9
06/04/2019 15:00 6.36 44.2 19.66 0.00 60.4
06/04/2019 14:00 6.36 44.2 19.66 0.00 63.3
06/04/2019 13:00 6.37 45.2 19.67 0.00 65.2
06/04/2019 12:00 -- -- -- -- --
06/04/2019 11:00 -- -- -- -- --
06/04/2019 10:00 -- -- -- -- --
06/04/2019 09:00 -- -- -- -- --
06/04/2019 08:00 -- -- -- -- --
06/04/2019 07:00 -- -- -- -- --
06/04/2019 06:00 -- -- -- -- --
06/04/2019 05:00 -- -- -- -- --
06/04/2019 04:00 -- -- -- -- --
06/04/2019 03:00 -- -- -- -- --
06/04/2019 02:00 -- -- -- -- --